createdAt,value
2022-10-02T00:02:27.392Z,9.98
2022-10-02T00:05:29.861Z,9.98
2022-10-02T00:08:23.284Z,9.96
2022-10-02T00:11:20.848Z,9.98
2022-10-02T00:14:05.408Z,10.00
2022-10-02T00:16:42.509Z,10.03
2022-10-02T00:19:15.764Z,10.06
2022-10-02T00:22:06.399Z,10.08
2022-10-02T00:25:00.294Z,10.08
2022-10-02T00:28:11.802Z,10.08
2022-10-02T00:30:56.133Z,10.06
2022-10-02T00:33:53.805Z,10.05
2022-10-02T00:37:06.751Z,10.06
2022-10-02T00:40:13.412Z,10.07
2022-10-02T00:43:27.682Z,10.09
2022-10-02T00:46:04.558Z,10.09
2022-10-02T00:49:12.368Z,10.08
2022-10-02T00:52:19.354Z,10.06
2022-10-02T00:55:13.276Z,10.05
2022-10-02T00:58:22.178Z,10.05
2022-10-02T01:01:23.027Z,10.06
2022-10-02T01:03:54.658Z,10.06
2022-10-02T01:06:29.197Z,10.06
2022-10-02T01:08:59.530Z,10.05
2022-10-02T01:11:31.329Z,10.05
2022-10-02T01:14:15.491Z,10.05
2022-10-02T01:16:45.939Z,10.06
2022-10-02T01:19:46.551Z,10.07
2022-10-02T01:22:18.159Z,10.07
2022-10-02T01:24:54.864Z,10.08
2022-10-02T01:27:39.428Z,10.10
2022-10-02T01:30:12.866Z,10.10
2022-10-02T01:32:48.110Z,10.10
2022-10-02T01:35:20.497Z,10.11
2022-10-02T01:37:51.643Z,10.11
2022-10-02T01:40:35.083Z,10.12
2022-10-02T01:43:24.514Z,10.13
2022-10-02T01:46:14.241Z,10.13
2022-10-02T01:49:21.725Z,10.15
2022-10-02T01:52:07.708Z,10.15
2022-10-02T01:54:52.146Z,10.14
2022-10-02T01:58:12.864Z,10.14
2022-10-02T02:00:54.282Z,10.15
2022-10-02T02:03:49.150Z,10.15
2022-10-02T02:07:03.391Z,10.16
2022-10-02T02:09:59.650Z,10.19
2022-10-02T02:12:45.840Z,10.19
2022-10-02T02:15:24.147Z,10.19
2022-10-02T02:18:17.740Z,10.19
2022-10-02T02:21:09.425Z,10.19
2022-10-02T02:23:41.129Z,10.18
2022-10-02T02:26:18.983Z,10.19
2022-10-02T02:29:06.626Z,10.20
2022-10-02T02:31:53.131Z,10.20
2022-10-02T02:34:35.968Z,10.20
2022-10-02T02:37:11.904Z,10.19
2022-10-02T02:39:58.219Z,10.20
2022-10-02T02:42:32.715Z,10.20
2022-10-02T02:45:04.383Z,10.18
2022-10-02T02:47:52.612Z,10.16
2022-10-02T02:50:29.686Z,10.17
2022-10-02T02:53:18.306Z,10.18
2022-10-02T02:55:51.372Z,10.18
2022-10-02T02:58:27.844Z,10.17
2022-10-02T03:00:57.480Z,10.17
2022-10-02T03:03:26.708Z,10.16
2022-10-02T03:06:22.572Z,10.16
2022-10-02T03:08:53.385Z,10.16
2022-10-02T03:11:44.248Z,10.16
2022-10-02T03:14:41.875Z,10.14
2022-10-02T03:17:31.092Z,10.14
2022-10-02T03:20:12.073Z,10.14
2022-10-02T03:23:13.573Z,10.13
2022-10-02T03:25:46.950Z,10.13
2022-10-02T03:28:50.502Z,10.13
2022-10-02T03:31:17.685Z,10.12
2022-10-02T03:33:49.389Z,10.13
2022-10-02T03:36:20.893Z,10.13
2022-10-02T03:39:24.263Z,10.14
2022-10-02T03:41:55.113Z,10.14
2022-10-02T03:44:38.299Z,10.13
2022-10-02T03:47:07.474Z,10.11
2022-10-02T03:49:50.721Z,10.10
2022-10-02T03:52:35.911Z,10.09
2022-10-02T03:55:40.023Z,10.08
2022-10-02T03:58:16.339Z,10.07
2022-10-02T04:01:01.572Z,10.07
2022-10-02T04:03:53.639Z,10.10
2022-10-02T04:06:36.391Z,10.11
2022-10-02T04:09:12.994Z,10.12
2022-10-02T04:11:46.701Z,10.12
2022-10-02T04:14:39.975Z,10.10
2022-10-02T04:17:14.570Z,10.10
2022-10-02T04:20:07.628Z,10.10
2022-10-02T04:22:43.127Z,10.10
2022-10-02T04:25:19.224Z,10.10
2022-10-02T04:27:59.776Z,10.09
2022-10-02T04:30:30.386Z,10.08
2022-10-02T04:33:12.973Z,10.08
2022-10-02T04:36:00.852Z,10.10
2022-10-02T04:38:48.014Z,10.11
2022-10-02T04:41:26.536Z,10.11
2022-10-02T04:44:21.508Z,10.12
2022-10-02T04:47:21.457Z,10.13
2022-10-02T04:50:15.082Z,10.16
2022-10-02T04:53:25.702Z,10.16
2022-10-02T04:56:14.944Z,10.15
2022-10-02T04:59:24.671Z,10.13
2022-10-02T05:02:14.219Z,10.14
2022-10-02T05:05:20.008Z,10.15
2022-10-02T05:08:05.478Z,10.15
2022-10-02T05:10:50.266Z,10.15
2022-10-02T05:13:32.783Z,10.15
2022-10-02T05:16:43.078Z,10.15
2022-10-02T05:19:43.025Z,10.15
2022-10-02T05:22:44.821Z,10.16
2022-10-02T05:25:32.594Z,10.17
2022-10-02T05:28:20.065Z,10.19
2022-10-02T05:30:55.835Z,10.20
2022-10-02T05:33:55.626Z,10.20
2022-10-02T05:36:55.687Z,10.20
2022-10-02T05:39:34.588Z,10.20
2022-10-02T05:42:06.463Z,10.20
2022-10-02T05:44:39.943Z,10.21
2022-10-02T05:47:27.380Z,10.21
2022-10-02T05:50:04.200Z,10.24
2022-10-02T05:52:38.494Z,10.26
2022-10-02T05:55:53.865Z,10.28
2022-10-02T05:58:51.141Z,10.29
2022-10-02T06:01:41.988Z,10.30
2022-10-02T06:04:16.943Z,10.29
2022-10-02T06:06:54.556Z,10.30
2022-10-02T06:09:26.691Z,10.32
2022-10-02T06:12:04.064Z,10.31
2022-10-02T06:14:39.851Z,10.31
2022-10-02T06:17:41.613Z,10.31
2022-10-02T06:20:43.266Z,10.31
2022-10-02T06:23:40.934Z,10.31
2022-10-02T06:26:50.302Z,10.32
2022-10-02T06:30:03.322Z,10.33
2022-10-02T06:33:11.227Z,10.34
2022-10-02T06:36:18.296Z,10.38
2022-10-02T06:39:15.454Z,10.44
2022-10-02T06:42:03.132Z,10.46
2022-10-02T06:44:37.656Z,10.47
2022-10-02T06:47:26.153Z,10.46
2022-10-02T06:50:24.117Z,10.47
2022-10-02T06:52:58.371Z,10.53
2022-10-02T06:55:59.814Z,10.58
2022-10-02T06:59:06.111Z,10.64
2022-10-02T07:01:47.576Z,10.68
2022-10-02T07:04:22.573Z,10.68
2022-10-02T07:07:09.655Z,10.68
2022-10-02T07:10:16.180Z,10.70
2022-10-02T07:12:54.435Z,10.75
2022-10-02T07:15:41.546Z,10.80
2022-10-02T07:18:32.367Z,10.80
2022-10-02T07:21:38.947Z,10.78
2022-10-02T07:24:34.007Z,10.79
2022-10-02T07:27:28.681Z,10.78
2022-10-02T07:30:06.043Z,10.76
2022-10-02T07:32:52.504Z,10.78
2022-10-02T07:35:30.535Z,10.81
2022-10-02T07:38:17.934Z,10.83
2022-10-02T07:41:23.388Z,10.83
2022-10-02T07:44:08.482Z,10.87
2022-10-02T07:47:25.886Z,10.93
2022-10-02T07:50:31.152Z,11.05
2022-10-02T07:53:09.037Z,11.11
2022-10-02T07:55:41.928Z,11.10
2022-10-02T07:58:28.294Z,11.07
2022-10-02T08:01:18.597Z,11.06
2022-10-02T08:03:57.091Z,11.09
2022-10-02T08:06:27.133Z,11.12
2022-10-02T08:09:01.355Z,11.17
2022-10-02T08:11:38.206Z,11.21
2022-10-02T08:14:18.474Z,11.24
2022-10-02T08:16:51.610Z,11.29
2022-10-02T08:19:48.936Z,11.34
2022-10-02T08:22:34.175Z,11.38
2022-10-02T08:25:26.145Z,11.43
2022-10-02T08:28:19.621Z,11.49
2022-10-02T08:30:48.496Z,11.54
2022-10-02T08:33:22.864Z,11.52
2022-10-02T08:36:29.633Z,11.47
2022-10-02T08:39:23.397Z,11.41
2022-10-02T08:42:25.163Z,11.36
2022-10-02T08:45:34.525Z,11.34
2022-10-02T08:48:40.824Z,11.36
2022-10-02T08:51:12.354Z,11.43
2022-10-02T08:54:18.517Z,11.50
2022-10-02T08:57:05.725Z,11.62
2022-10-02T09:00:02.859Z,11.74
2022-10-02T09:02:31.856Z,11.83
2022-10-02T09:05:26.354Z,11.90
2022-10-02T09:08:33.581Z,11.88
2022-10-02T09:11:14.587Z,11.81
2022-10-02T09:13:49.950Z,11.82
2022-10-02T09:16:40.003Z,11.82
2022-10-02T09:19:28.246Z,11.85
2022-10-02T09:22:05.659Z,12.02
2022-10-02T09:24:37.663Z,12.23
2022-10-02T09:27:32.094Z,12.28
2022-10-02T09:30:28.357Z,12.26
2022-10-02T09:33:34.566Z,12.22
2022-10-02T09:36:19.399Z,12.22
2022-10-02T09:39:25.522Z,12.20
2022-10-02T09:42:20.383Z,12.19
2022-10-02T09:45:01.376Z,12.20
2022-10-02T09:47:43.460Z,12.21
2022-10-02T09:50:42.488Z,12.24
2022-10-02T09:53:49.337Z,12.23
2022-10-02T09:56:56.027Z,12.21
2022-10-02T09:59:53.888Z,12.28
2022-10-02T10:02:35.879Z,12.37
2022-10-02T10:05:23.321Z,12.43
2022-10-02T10:07:55.443Z,12.45
2022-10-02T10:10:46.579Z,12.46
2022-10-02T10:13:37.556Z,12.52
2022-10-02T10:16:46.087Z,12.68
2022-10-02T10:19:42.124Z,12.73
2022-10-02T10:22:20.128Z,12.70
2022-10-02T10:24:51.914Z,12.66
2022-10-02T10:27:30.443Z,12.69
2022-10-02T10:30:27.982Z,12.78
2022-10-02T10:33:09.253Z,12.84
2022-10-02T10:35:54.264Z,12.88
2022-10-02T10:38:35.429Z,12.85
2022-10-02T10:41:37.606Z,12.77
2022-10-02T10:44:22.766Z,12.70
2022-10-02T10:47:23.648Z,12.74
2022-10-02T10:50:32.300Z,12.75
2022-10-02T10:53:19.511Z,12.72
2022-10-02T10:56:26.645Z,12.70
2022-10-02T10:59:25.586Z,12.70
2022-10-02T11:02:36.519Z,12.71
2022-10-02T11:05:28.668Z,12.76
2022-10-02T11:08:20.159Z,12.76
2022-10-02T11:10:52.332Z,12.79
2022-10-02T11:13:54.689Z,12.82
2022-10-02T11:16:36.310Z,12.84
2022-10-02T11:19:17.967Z,12.86
2022-10-02T11:22:21.679Z,12.89
2022-10-02T11:25:36.105Z,12.92
2022-10-02T11:28:43.141Z,12.94
2022-10-02T11:31:41.185Z,12.90
2022-10-02T11:34:52.709Z,12.87
2022-10-02T11:37:53.865Z,12.84
2022-10-02T11:40:44.629Z,12.83
2022-10-02T11:43:34.956Z,12.80
2022-10-02T11:46:48.873Z,12.72
2022-10-02T11:49:45.865Z,12.65
2022-10-02T11:52:59.915Z,12.53
2022-10-02T11:55:31.659Z,12.54
2022-10-02T11:58:05.128Z,12.59
2022-10-02T12:01:06.106Z,12.65
2022-10-02T12:04:24.684Z,12.72
2022-10-02T12:07:11.008Z,12.88
2022-10-02T12:10:31.177Z,12.96
2022-10-02T12:13:25.589Z,12.92
2022-10-02T12:16:11.580Z,12.99
2022-10-02T12:19:09.039Z,13.02
2022-10-02T12:22:13.008Z,13.02
2022-10-02T12:25:11.213Z,12.99
2022-10-02T12:27:52.483Z,12.97
2022-10-02T12:30:28.505Z,12.92
2022-10-02T12:33:36.662Z,12.92
2022-10-02T12:36:33.709Z,12.95
2022-10-02T12:39:27.100Z,12.89
2022-10-02T12:42:02.086Z,12.82
2022-10-02T12:44:39.648Z,12.78
2022-10-02T12:47:38.642Z,12.79
2022-10-02T12:50:37.303Z,12.79
2022-10-02T12:53:37.585Z,12.79
2022-10-02T12:56:42.480Z,12.80
2022-10-02T12:59:50.183Z,12.88
2022-10-02T13:02:59.735Z,12.91
2022-10-02T13:06:08.200Z,12.90
2022-10-02T13:09:09.124Z,12.93
2022-10-02T13:11:57.019Z,13.09
2022-10-02T13:15:04.547Z,13.17
2022-10-02T13:18:13.690Z,13.32
2022-10-02T13:21:07.650Z,13.25
2022-10-02T13:23:43.123Z,13.16
2022-10-02T13:26:31.232Z,13.18
2022-10-02T13:29:10.298Z,13.21
2022-10-02T13:32:04.602Z,13.23
2022-10-02T13:35:02.657Z,13.26
2022-10-02T13:37:59.525Z,13.33
2022-10-02T13:40:47.449Z,13.39
2022-10-02T13:43:58.407Z,13.34
2022-10-02T13:46:46.097Z,13.40
2022-10-02T13:49:22.224Z,13.46
2022-10-02T13:52:30.305Z,13.48
2022-10-02T13:55:06.630Z,13.43
2022-10-02T13:57:58.024Z,13.44
2022-10-02T14:00:39.336Z,13.48
2022-10-02T14:03:55.926Z,13.56
2022-10-02T14:06:45.513Z,13.76
2022-10-02T14:09:14.892Z,13.84
2022-10-02T14:11:46.221Z,13.81
2022-10-02T14:14:38.478Z,13.87
2022-10-02T14:17:40.051Z,14.02
2022-10-02T14:20:36.102Z,14.14
2022-10-02T14:23:38.487Z,14.18
2022-10-02T14:26:44.970Z,14.15
2022-10-02T14:29:38.803Z,14.07
2022-10-02T14:32:15.301Z,13.91
2022-10-02T14:34:53.459Z,13.87
2022-10-02T14:38:00.974Z,13.87
2022-10-02T14:40:58.652Z,13.86
2022-10-02T14:44:09.021Z,13.93
2022-10-02T14:47:15.408Z,13.96
2022-10-02T14:49:59.806Z,13.81
2022-10-02T14:52:53.619Z,13.76
2022-10-02T14:56:10.779Z,13.71
2022-10-02T14:59:11.590Z,13.64
2022-10-02T15:02:03.614Z,13.64
2022-10-02T15:05:23.554Z,13.64
2022-10-02T15:11:00.346Z,13.46
2022-10-02T15:13:46.073Z,13.45
2022-10-02T15:16:35.670Z,13.48
2022-10-02T15:19:26.192Z,13.41
2022-10-02T15:22:32.145Z,13.32
2022-10-02T15:25:18.189Z,13.20
2022-10-02T15:28:35.635Z,13.08
2022-10-02T15:31:25.687Z,12.95
2022-10-02T15:34:09.569Z,12.84
2022-10-02T15:37:23.770Z,12.77
2022-10-02T15:40:17.252Z,12.66
2022-10-02T15:43:29.153Z,12.59
2022-10-02T15:46:34.766Z,12.51
2022-10-02T15:49:23.379Z,12.47
2022-10-02T15:52:10.949Z,12.43
2022-10-02T15:54:57.109Z,12.39
2022-10-02T15:57:44.999Z,12.35
2022-10-02T16:00:16.717Z,12.29
2022-10-02T16:03:24.671Z,12.25
2022-10-02T16:05:56.191Z,12.19
2022-10-02T16:09:00.394Z,12.13
2022-10-02T16:12:04.060Z,12.06
2022-10-02T16:15:04.729Z,12.02
2022-10-02T16:18:14.475Z,11.97
2022-10-02T16:21:08.344Z,11.90
2022-10-02T16:24:09.499Z,11.82
2022-10-02T16:27:01.870Z,11.75
2022-10-02T16:29:52.892Z,11.69
2022-10-02T16:32:51.958Z,11.64
2022-10-02T16:35:43.872Z,11.60
2022-10-02T16:38:19.421Z,11.57
2022-10-02T16:40:58.869Z,11.55
2022-10-02T16:46:44.573Z,11.46
2022-10-02T16:49:44.599Z,11.40
2022-10-02T16:52:43.603Z,11.36
2022-10-02T16:55:31.425Z,11.36
2022-10-02T17:01:33.988Z,11.37
2022-10-02T17:04:13.423Z,11.27
2022-10-02T17:07:07.437Z,11.13
2022-10-02T17:09:48.662Z,11.01
2022-10-02T17:12:30.602Z,10.88
2022-10-02T17:15:23.491Z,10.74
2022-10-02T17:18:13.891Z,10.61
2022-10-02T17:20:50.073Z,10.53
2022-10-02T17:23:53.984Z,10.43
2022-10-02T17:26:56.503Z,10.36
2022-10-02T17:30:03.917Z,10.29
2022-10-02T17:32:46.205Z,10.21
2022-10-02T17:35:19.528Z,10.15
2022-10-02T17:38:30.166Z,10.11
2022-10-02T17:41:36.960Z,10.05
2022-10-02T17:44:41.876Z,10.02
2022-10-02T17:47:32.707Z,9.99
2022-10-02T17:50:20.948Z,9.96
2022-10-02T17:53:30.125Z,9.95
2022-10-02T17:56:53.075Z,9.89
2022-10-02T17:59:48.828Z,9.82
2022-10-02T18:02:53.320Z,9.77
2022-10-02T18:05:44.070Z,9.75
2022-10-02T18:08:30.458Z,9.71
2022-10-02T18:11:18.227Z,9.65
2022-10-02T18:14:24.616Z,9.58
2022-10-02T18:17:12.756Z,9.51
2022-10-02T18:20:48.243Z,9.50
2022-10-02T18:23:17.263Z,9.50
2022-10-02T18:26:18.102Z,9.50
2022-10-02T18:28:57.838Z,9.51
2022-10-02T18:32:07.938Z,9.51
2022-10-02T18:34:54.774Z,9.53
2022-10-02T18:37:47.861Z,9.54
2022-10-02T18:40:55.059Z,9.54
2022-10-02T18:44:07.563Z,9.52
2022-10-02T18:47:00.099Z,9.50
2022-10-02T18:50:07.604Z,9.46
2022-10-02T18:52:52.186Z,9.41
2022-10-02T18:55:49.918Z,9.34
2022-10-02T18:59:10.125Z,9.27
2022-10-02T19:02:06.055Z,9.19
2022-10-02T19:05:17.325Z,9.16
2022-10-02T19:08:11.843Z,9.11
2022-10-02T19:10:47.318Z,9.07
2022-10-02T19:13:39.745Z,9.04
2022-10-02T19:16:23.202Z,9.00
2022-10-02T19:19:24.603Z,8.96
2022-10-02T19:21:59.233Z,8.94
2022-10-02T19:24:38.371Z,8.92
2022-10-02T19:27:31.298Z,8.90
2022-10-02T19:30:29.068Z,8.88
2022-10-02T19:33:03.323Z,8.87
2022-10-02T19:35:45.197Z,8.83
2022-10-02T19:38:42.187Z,8.81
2022-10-02T19:41:15.718Z,8.80
2022-10-02T19:43:54.822Z,8.77
2022-10-02T19:46:36.162Z,8.75
2022-10-02T19:49:07.169Z,8.73
2022-10-02T19:51:45.877Z,8.72
2022-10-02T19:54:28.158Z,8.73
2022-10-02T19:57:11.918Z,8.72
2022-10-02T19:59:46.708Z,8.71
2022-10-02T20:02:31.501Z,8.70
2022-10-02T20:05:42.393Z,8.68
2022-10-02T20:08:19.699Z,8.67
2022-10-02T20:10:58.292Z,8.68
2022-10-02T20:13:49.974Z,8.69
2022-10-02T20:16:42.668Z,8.70
2022-10-02T20:19:20.026Z,8.69
2022-10-02T20:21:53.155Z,8.68
2022-10-02T20:24:36.207Z,8.67
2022-10-02T20:27:18.126Z,8.66
2022-10-02T20:29:54.178Z,8.66
2022-10-02T20:32:28.942Z,8.67
2022-10-02T20:35:07.596Z,8.69
2022-10-02T20:37:37.402Z,8.70
2022-10-02T20:40:21.947Z,8.70
2022-10-02T20:43:19.996Z,8.70
2022-10-02T20:46:02.954Z,8.69
2022-10-02T20:49:03.483Z,8.70
2022-10-02T20:51:52.838Z,8.70
2022-10-02T20:54:59.942Z,8.73
2022-10-02T20:57:59.510Z,8.74
2022-10-02T21:00:55.998Z,8.73
2022-10-02T21:06:54.981Z,8.69
2022-10-02T21:09:57.888Z,8.65
2022-10-02T21:12:33.223Z,8.60
2022-10-02T21:15:20.778Z,8.57
2022-10-02T21:18:11.294Z,8.54
2022-10-02T21:21:19.622Z,8.50
2022-10-02T21:24:07.272Z,8.48
2022-10-02T21:27:04.573Z,8.47
2022-10-02T21:29:44.360Z,8.45
2022-10-02T21:32:41.245Z,8.42
2022-10-02T21:35:18.185Z,8.39
2022-10-02T21:38:28.349Z,8.36
2022-10-02T21:41:00.499Z,8.32
2022-10-02T21:44:03.594Z,8.29
2022-10-02T21:47:10.569Z,8.26
2022-10-02T21:50:12.686Z,8.24
2022-10-02T21:53:12.567Z,8.23
2022-10-02T21:56:12.986Z,8.21
2022-10-02T21:59:26.788Z,8.19
2022-10-02T22:02:34.063Z,8.16
2022-10-02T22:05:47.736Z,8.13
2022-10-02T22:08:55.428Z,8.11
2022-10-02T22:12:01.351Z,8.08
2022-10-02T22:14:39.652Z,8.07
2022-10-02T22:17:25.405Z,8.07
2022-10-02T22:20:32.102Z,8.06
2022-10-02T22:23:14.832Z,8.05
2022-10-02T22:26:05.503Z,8.05
2022-10-02T22:29:17.941Z,8.06
2022-10-02T22:32:30.524Z,8.07
2022-10-02T22:35:20.032Z,8.07
2022-10-02T22:38:14.822Z,8.09
2022-10-02T22:41:06.970Z,8.08
2022-10-02T22:43:57.447Z,8.09
2022-10-02T22:46:53.463Z,8.07
2022-10-02T22:49:46.173Z,8.06
2022-10-02T22:52:56.555Z,8.07
2022-10-02T22:55:50.651Z,8.08
2022-10-02T22:58:32.283Z,8.08
2022-10-02T23:01:12.176Z,8.08
2022-10-02T23:03:49.864Z,8.07
2022-10-02T23:06:38.093Z,8.06
2022-10-02T23:09:33.618Z,8.07
2022-10-02T23:12:12.605Z,8.08
2022-10-02T23:14:59.766Z,8.09
2022-10-02T23:17:53.936Z,8.11
2022-10-02T23:20:40.001Z,8.14
2022-10-02T23:23:51.652Z,8.15
2022-10-02T23:26:39.570Z,8.15
2022-10-02T23:29:35.663Z,8.17
2022-10-02T23:32:27.513Z,8.19
2022-10-02T23:35:21.275Z,8.22
2022-10-02T23:38:12.135Z,8.24
2022-10-02T23:41:22.590Z,8.27
2022-10-02T23:44:13.129Z,8.30
2022-10-02T23:47:21.503Z,8.31
2022-10-02T23:49:59.710Z,8.31
2022-10-02T23:52:41.357Z,8.31
2022-10-02T23:55:23.380Z,8.33
2022-10-02T23:58:13.714Z,8.33
